Time;durP1;ratioP1;P1;durP2;ratioP2;P2;SDS_P1;SDS_P2;PMS_P1;PMS_P2;Temp;Humidity;BMP_temperature;BMP_pressure;BME280_temperature;BME280_humidity;BME280_pressure;Samples;Min_cycle;Max_cycle;Signal;HPM_P1;HPM_P2
2022/09/20 00:01:09;;;;;;;6.43;2.00;;;;;;;11.42;82.65;102156.56;5043920;28;20080;-77
2022/09/20 00:03:37;;;;;;;5.97;2.13;;;;;;;11.41;82.97;102154.84;5030290;28;20032;-77
2022/09/20 00:06:04;;;;;;;5.55;2.03;;;;;;;11.41;83.25;102154.84;5041789;28;20057;-77
2022/09/20 00:08:29;;;;;;;4.55;2.28;;;;;;;11.42;83.16;102155.72;5031407;28;20025;-77
2022/09/20 00:11:19;;;;;;;5.40;2.35;;;;;;;11.41;83.53;102151.41;5046521;28;20036;-77
2022/09/20 00:13:47;;;;;;;7.85;2.80;;;;;;;11.41;83.63;102154.84;5042217;28;20036;-77
2022/09/20 00:16:15;;;;;;;5.72;2.35;;;;;;;11.39;83.83;102152.28;5045779;28;20041;-77
2022/09/20 00:18:40;;;;;;;5.93;2.70;;;;;;;11.41;83.84;102154.84;5040126;28;20029;-77
2022/09/20 00:21:06;;;;;;;5.38;2.30;;;;;;;11.42;83.84;102153.97;5042747;28;20029;-77
2022/09/20 00:23:32;;;;;;;7.15;2.60;;;;;;;11.42;83.75;102150.53;5043956;28;20029;-76
2022/09/20 00:26:01;;;;;;;5.32;2.58;;;;;;;11.41;83.83;102159.22;5040538;28;20033;-77
2022/09/20 00:28:27;;;;;;;6.55;2.95;;;;;;;11.38;83.81;102153.16;5043959;28;20090;-77
2022/09/20 00:30:54;;;;;;;8.02;2.70;;;;;;;11.38;83.80;102155.75;5043733;28;20105;-77
2022/09/20 00:33:21;;;;;;;7.68;2.67;;;;;;;11.36;83.94;102157.50;5040142;28;20103;-77
2022/09/20 00:35:47;;;;;;;6.20;2.85;;;;;;;11.36;83.96;102160.09;5042010;28;20029;-76
2022/09/20 00:38:13;;;;;;;6.18;3.17;;;;;;;11.35;83.88;102158.38;5043615;28;20079;-76
2022/09/20 00:40:43;;;;;;;7.32;3.15;;;;;;;11.35;84.11;102165.34;5040077;28;20354;-76
2022/09/20 00:43:13;;;;;;;8.45;3.08;;;;;;;11.33;83.89;102162.72;5047130;28;20476;-76
2022/09/20 00:45:39;;;;;;;6.05;3.08;;;;;;;11.33;84.38;102167.09;5044411;28;20033;-77
2022/09/20 00:48:26;;;;;;;7.10;2.83;;;;;;;11.33;84.09;102167.09;5037893;28;20029;-77
2022/09/20 00:51:00;;;;;;;6.13;2.70;;;;;;;11.31;84.34;102168.84;5043609;28;20437;-77
2022/09/20 00:53:35;;;;;;;6.15;3.30;;;;;;;11.28;84.19;102169.69;5041551;28;20036;-77
2022/09/20 00:56:06;;;;;;;6.57;2.97;;;;;;;11.27;84.34;102167.13;5044867;28;20021;-77
2022/09/20 00:58:37;;;;;;;6.53;3.28;;;;;;;11.25;84.62;102169.75;5038032;28;20024;-77
2022/09/20 01:01:03;;;;;;;6.32;3.38;;;;;;;11.25;84.58;102167.16;5040529;28;20116;-77
2022/09/20 01:03:32;;;;;;;6.65;3.05;;;;;;;11.25;84.52;102169.75;5040798;28;20150;-76
2022/09/20 01:06:00;;;;;;;7.50;3.17;;;;;;;11.24;84.72;102162.81;5044753;28;20040;-77
2022/09/20 01:08:26;;;;;;;5.80;3.35;;;;;;;11.23;84.51;102166.28;5045386;28;20137;-77
2022/09/20 01:10:52;;;;;;;7.90;2.95;;;;;;;11.22;84.12;102173.22;5045080;28;20100;-77
2022/09/20 01:13:17;;;;;;;5.43;2.92;;;;;;;11.21;84.30;102162.81;5042117;28;20035;-77
2022/09/20 01:15:45;;;;;;;7.35;3.45;;;;;;;11.20;84.46;102176.72;5046887;28;20029;-77
2022/09/20 01:18:12;;;;;;;8.18;3.72;;;;;;;11.19;84.59;102175.00;5042140;28;20027;-76
2022/09/20 01:20:41;;;;;;;10.52;3.30;;;;;;;11.17;84.33;102168.94;5040228;28;20096;-76
2022/09/20 01:23:12;;;;;;;5.50;3.10;;;;;;;11.13;84.42;102169.81;5042711;28;20386;-76
2022/09/20 01:26:00;;;;;;;6.88;3.15;;;;;;;11.13;84.24;102175.03;5039610;28;20027;-77
2022/09/20 01:28:27;;;;;;;7.10;3.03;;;;;;;11.08;84.68;102167.25;5038331;28;20608;-77
2022/09/20 01:31:03;;;;;;;6.97;3.25;;;;;;;11.07;84.80;102171.59;5042600;28;20079;-76
2022/09/20 01:33:34;;;;;;;6.70;3.13;;;;;;;11.07;84.97;102161.19;5037224;28;20397;-76
2022/09/20 01:36:03;;;;;;;7.40;3.20;;;;;;;11.08;85.04;102162.03;5039269;28;20033;-77
2022/09/20 01:38:50;;;;;;;8.15;3.10;;;;;;;11.10;84.97;102154.22;5040176;28;20034;-77
2022/09/20 01:41:23;;;;;;;7.55;3.20;;;;;;;11.10;85.31;102162.91;5040608;28;20373;-77
2022/09/20 01:43:56;;;;;;;6.38;2.80;;;;;;;11.11;85.17;102155.94;5040568;28;20104;-76
2022/09/20 01:46:32;;;;;;;4.35;2.60;;;;;;;11.10;85.09;102151.63;5042401;28;20027;-77
2022/09/20 01:49:25;;;;;;;6.60;2.95;;;;;;;11.12;85.08;102155.06;5038751;28;20055;-77
2022/09/20 01:52:18;;;;;;;7.15;2.85;;;;;;;11.11;85.04;102156.81;5041390;28;20165;-77
2022/09/20 01:54:58;;;;;;;6.13;2.75;;;;;;;11.11;84.71;102162.03;5044504;28;20025;-77
2022/09/20 01:57:41;;;;;;;6.95;2.97;;;;;;;11.12;84.76;102163.75;5039438;28;20030;-77
2022/09/20 02:00:07;;;;;;;6.13;2.85;;;;;;;11.10;84.65;102159.44;5042418;28;20021;-76
2022/09/20 02:03:19;;;;;;;5.60;2.63;;;;;;;11.11;84.87;102161.13;5043970;28;20083;-77
2022/09/20 02:06:06;;;;;;;4.32;2.60;;;;;;;11.10;84.73;102170.72;5043784;28;20063;-77
2022/09/20 02:09:09;;;;;;;5.82;2.45;;;;;;;11.08;84.83;102168.13;5038358;28;20029;-77
2022/09/20 02:12:12;;;;;;;5.60;2.80;;;;;;;11.10;84.49;102175.06;5038238;28;20037;-77
2022/09/20 02:14:49;;;;;;;10.52;2.92;;;;;;;11.06;84.14;102167.25;5043029;28;20033;-77
2022/09/20 02:17:45;;;;;;;7.03;2.70;;;;;;;11.04;84.69;102166.41;5038954;28;20029;-77
2022/09/20 02:20:21;;;;;;;5.57;2.70;;;;;;;11.02;84.61;102167.28;5037708;28;20036;-77
2022/09/20 02:23:11;;;;;;;5.40;2.70;;;;;;;11.01;84.91;102166.44;5043591;28;20037;-77
2022/09/20 02:26:01;;;;;;;8.40;2.58;;;;;;;10.99;84.47;102162.97;5050144;28;20040;-77
2022/09/20 02:28:53;;;;;;;8.82;2.83;;;;;;;10.97;84.52;102163.84;5053237;28;20017;-77
2022/09/20 02:31:37;;;;;;;6.90;2.70;;;;;;;10.95;84.99;102153.44;5043906;28;20033;-77
2022/09/20 02:34:42;;;;;;;4.57;2.42;;;;;;;10.96;84.56;102149.94;5041400;28;20100;-77
2022/09/20 02:37:24;;;;;;;8.23;2.75;;;;;;;10.96;84.85;102142.16;5036960;28;20032;-76
2022/09/20 02:40:17;;;;;;;8.23;2.45;;;;;;;10.97;84.49;102138.66;5021763;28;20148;-76
2022/09/20 02:42:53;;;;;;;7.65;2.25;;;;;;;10.98;84.92;102140.41;5036198;28;20383;-77
2022/09/20 02:45:34;;;;;;;7.57;2.60;;;;;;;10.98;84.48;102143.00;5035250;28;20100;-77
2022/09/20 02:48:03;;;;;;;6.72;2.40;;;;;;;10.99;84.65;102144.72;5037483;28;20033;-76
2022/09/20 02:50:57;;;;;;;4.88;2.25;;;;;;;11.00;84.56;102151.66;5039834;28;20484;-77
2022/09/20 02:53:38;;;;;;;4.30;2.33;;;;;;;11.00;84.63;102148.22;5038933;28;20022;-77
2022/09/20 02:56:43;;;;;;;5.47;2.43;;;;;;;11.02;84.50;102149.03;5040633;28;20035;-76
2022/09/20 02:59:28;;;;;;;6.32;2.60;;;;;;;11.02;84.52;102151.66;5031736;28;20511;-77
2022/09/20 03:02:09;;;;;;;6.90;2.60;;;;;;;11.00;84.55;102150.81;5039653;28;20384;-77
2022/09/20 03:04:55;;;;;;;5.75;2.38;;;;;;;10.99;84.19;102154.28;5036616;28;20037;-76
2022/09/20 03:07:52;;;;;;;5.60;2.60;;;;;;;10.99;84.36;102160.34;5041894;28;20052;-76
2022/09/20 03:10:32;;;;;;;5.35;2.60;;;;;;;10.97;84.09;102154.28;5037917;28;20120;-77
2022/09/20 03:13:06;;;;;;;4.90;2.88;;;;;;;10.96;84.22;102157.75;5043146;28;20021;-77
2022/09/20 03:16:00;;;;;;;5.90;2.40;;;;;;;10.93;83.82;102157.81;5027875;28;20032;-77
2022/09/20 03:18:35;;;;;;;6.53;2.38;;;;;;;10.90;84.00;102161.28;5038100;28;20033;-77
2022/09/20 03:21:25;;;;;;;6.00;2.45;;;;;;;10.90;84.07;102156.06;5042957;28;20029;-77
2022/09/20 03:24:14;;;;;;;5.25;2.40;;;;;;;10.88;83.84;102162.16;5047499;28;20024;-77
2022/09/20 03:26:41;;;;;;;5.10;2.20;;;;;;;10.86;83.60;102156.94;5043844;28;20150;-77
2022/09/20 03:29:18;;;;;;;4.82;2.20;;;;;;;10.85;83.91;102150.00;5023200;28;20028;-76
2022/09/20 03:31:46;;;;;;;5.25;2.00;;;;;;;10.86;83.93;102151.75;5039622;28;20473;-77
2022/09/20 03:34:33;;;;;;;4.50;2.00;;;;;;;10.87;83.31;102152.63;5044441;28;20540;-77
2022/09/20 03:37:43;;;;;;;5.13;1.92;;;;;;;10.86;83.67;102145.69;5023379;28;20432;-76
2022/09/20 03:40:40;;;;;;;4.40;2.00;;;;;;;10.87;83.45;102152.63;5010591;28;20135;-76
2022/09/20 03:43:34;;;;;;;4.38;2.08;;;;;;;10.88;83.26;102156.97;5048929;28;20099;-77
2022/09/20 03:46:19;;;;;;;3.90;1.90;;;;;;;10.88;83.19;102146.56;5044577;28;20028;-76
2022/09/20 03:48:59;;;;;;;4.80;2.20;;;;;;;10.87;83.48;102155.22;5041894;28;20053;-77
2022/09/20 03:51:40;;;;;;;5.75;2.00;;;;;;;10.88;83.39;102167.38;5047516;28;20083;-77
2022/09/20 03:54:33;;;;;;;5.00;1.90;;;;;;;10.89;83.89;102153.50;5044562;28;20017;-76
2022/09/20 03:57:20;;;;;;;4.15;2.00;;;;;;;10.91;83.79;102156.94;5047522;28;20020;-77
2022/09/20 04:00:06;;;;;;;4.47;2.00;;;;;;;10.90;83.73;102160.44;5043056;28;20445;-77
2022/09/20 04:02:59;;;;;;;4.47;1.85;;;;;;;10.91;83.62;102154.34;5044607;28;20475;-76
2022/09/20 04:05:46;;;;;;;4.70;1.98;;;;;;;10.89;83.92;102156.09;5041829;28;20025;-77
2022/09/20 04:08:20;;;;;;;3.40;1.75;;;;;;;10.88;84.00;102150.00;5040986;28;20032;-77
2022/09/20 04:11:07;;;;;;;6.85;1.92;;;;;;;10.89;83.91;102151.72;5042386;28;20536;-76
2022/09/20 04:13:49;;;;;;;7.03;2.00;;;;;;;10.90;83.85;102156.06;5039367;28;20078;-77
2022/09/20 04:16:33;;;;;;;;;;;;;;;10.94;83.31;102162.13;5040461;28;20480;-76
2022/09/20 04:19:13;;;;;;;5.38;1.65;;;;;;;10.89;83.47;102156.09;5043834;28;19916;-77
2022/09/20 04:21:50;;;;;;;3.30;1.67;;;;;;;10.89;83.50;102156.09;5042806;28;20021;-77
2022/09/20 04:24:32;;;;;;;5.28;1.70;;;;;;;10.88;83.48;102164.78;5039099;28;20036;-76
2022/09/20 04:27:10;;;;;;;3.85;1.42;;;;;;;10.84;83.41;102157.84;5029422;28;20071;-76
2022/09/20 04:29:46;;;;;;;4.38;1.75;;;;;;;10.84;83.44;102157.84;5038478;28;20041;-77
2022/09/20 04:32:24;;;;;;;4.50;1.60;;;;;;;10.83;83.59;102161.31;5040778;28;20064;-76
2022/09/20 04:37:46;;;;;;;4.45;1.80;;;;;;;10.82;83.52;102162.19;5040941;28;20112;-77
2022/09/20 04:41:03;;;;;;;5.15;1.90;;;;;;;10.84;83.33;102160.44;5040820;28;20453;-76
2022/09/20 04:43:51;;;;;;;5.70;1.95;;;;;;;10.82;83.89;102159.59;4990324;28;20565;-77
2022/09/20 04:46:35;;;;;;;5.03;2.00;;;;;;;10.83;83.86;102166.53;4990686;28;20134;-76
2022/09/20 04:49:37;;;;;;;6.35;1.63;;;;;;;10.84;83.72;102157.84;5038354;28;20076;-77
2022/09/20 04:52:05;;;;;;;3.78;1.92;;;;;;;10.85;83.98;102168.25;5037327;28;20735;-77
2022/09/20 04:55:02;;;;;;;8.93;1.98;;;;;;;10.85;83.86;102160.44;5039171;28;20108;-77
2022/09/20 04:58:05;;;;;;;5.57;1.90;;;;;;;10.86;83.99;102167.38;5040988;28;20025;-77
2022/09/20 05:01:15;;;;;;;6.93;1.92;;;;;;;10.88;84.05;102167.38;5019692;28;20052;-76
2022/09/20 05:04:18;;;;;;;4.03;1.88;;;;;;;10.88;83.87;102170.84;5022599;28;20025;-76
2022/09/20 05:07:03;;;;;;;4.65;1.80;;;;;;;10.88;84.39;102177.78;5040497;28;20120;-76
2022/09/20 05:09:37;;;;;;;5.82;2.10;;;;;;;10.88;84.86;102170.84;5027175;28;20388;-77
2022/09/20 05:12:19;;;;;;;5.13;1.70;;;;;;;10.87;84.56;102176.91;5038552;28;20140;-77
2022/09/20 05:15:10;;;;;;;5.18;1.77;;;;;;;10.88;84.88;102169.97;5041278;28;20029;-77
2022/09/20 05:17:58;;;;;;;6.53;2.38;;;;;;;10.87;85.18;102176.91;5043482;28;20029;-77
2022/09/20 05:20:33;;;;;;;6.55;2.15;;;;;;;10.84;85.00;102174.34;5042127;28;22108;-77
2022/09/20 05:23:16;;;;;;;6.13;2.10;;;;;;;10.84;85.61;102173.47;5041999;28;20499;-77
2022/09/20 05:26:09;;;;;;;5.18;2.15;;;;;;;10.81;85.26;102174.34;5043044;28;20032;-77
2022/09/20 05:28:40;;;;;;;5.03;2.17;;;;;;;10.78;85.09;102175.22;5045028;28;20024;-77
2022/09/20 05:31:21;;;;;;;6.78;1.88;;;;;;;10.77;85.18;102173.50;5042932;28;20109;-77
2022/09/20 05:34:30;;;;;;;4.33;1.83;;;;;;;10.75;85.17;102180.47;5045162;28;20025;-76
2022/09/20 05:37:21;;;;;;;5.93;2.15;;;;;;;10.74;84.92;102189.16;5033060;28;20272;-77
2022/09/20 05:40:14;;;;;;;6.00;2.20;;;;;;;10.73;84.96;102191.75;5039319;28;20173;-77
2022/09/20 05:43:19;;;;;;;6.13;2.05;;;;;;;10.73;84.81;102196.94;5040755;28;20009;-76
2022/09/20 05:46:03;;;;;;;6.07;1.98;;;;;;;10.72;85.01;102196.09;5045410;28;20484;-76
2022/09/20 05:49:02;;;;;;;6.75;1.92;;;;;;;10.74;85.29;102196.06;5040903;28;20021;-77
2022/09/20 05:51:49;;;;;;;4.72;2.00;;;;;;;10.75;85.56;102200.41;5038643;28;20477;-77
2022/09/20 05:54:27;;;;;;;7.55;2.25;;;;;;;10.77;85.53;102204.72;5037979;28;20060;-77
2022/09/20 05:57:36;;;;;;;4.25;1.92;;;;;;;10.80;85.15;102203.88;5021627;28;20057;-77
2022/09/20 06:00:18;;;;;;;5.38;1.85;;;;;;;10.83;85.16;102211.66;5038851;28;20045;-76
2022/09/20 06:03:23;;;;;;;4.57;2.17;;;;;;;10.88;85.19;102222.06;5038927;28;20075;-77
2022/09/20 06:06:06;;;;;;;5.07;2.10;;;;;;;10.89;85.33;102219.44;5020258;28;20045;-77
2022/09/20 06:08:50;;;;;;;4.00;2.00;;;;;;;10.92;84.95;102221.16;5037331;28;20029;-77
2022/09/20 06:11:32;;;;;;;4.82;2.20;;;;;;;10.92;85.24;102219.41;5040353;28;20032;-76
2022/09/20 06:14:10;;;;;;;8.27;2.22;;;;;;;10.96;85.70;102214.19;5028471;28;20052;-76
2022/09/20 06:17:01;;;;;;;5.40;2.20;;;;;;;10.99;85.40;102215.03;5040917;28;20108;-76
2022/09/20 06:19:38;;;;;;;4.20;2.00;;;;;;;11.03;85.04;102214.16;5038198;28;20034;-77
2022/09/20 06:22:28;;;;;;;4.28;2.17;;;;;;;11.05;85.09;102219.34;5038071;28;20064;-77
2022/09/20 06:25:10;;;;;;;4.00;1.98;;;;;;;11.06;85.07;102221.06;5040102;28;20030;-77
2022/09/20 06:27:44;;;;;;;5.35;2.00;;;;;;;11.07;85.18;102223.69;5041739;28;20039;-77
2022/09/20 06:30:18;;;;;;;3.78;2.00;;;;;;;11.10;85.47;102229.75;5042838;28;20052;-77
2022/09/20 06:33:11;;;;;;;5.65;2.13;;;;;;;11.11;85.42;102223.66;5039512;28;20033;-77
2022/09/20 06:35:46;;;;;;;6.10;2.13;;;;;;;11.12;85.34;102223.66;5039616;28;20029;-77
2022/09/20 06:41:27;;;;;;;4.97;2.17;;;;;;;11.17;84.79;102223.63;5044301;28;20116;-77
2022/09/20 06:43:57;;;;;;;4.57;1.95;;;;;;;11.20;85.12;102228.81;5038604;28;20119;-76
2022/09/20 06:46:27;;;;;;;5.13;2.15;;;;;;;11.20;84.78;102228.81;5048058;28;20037;-77
2022/09/20 06:48:54;;;;;;;4.65;1.88;;;;;;;11.21;84.97;102231.41;5038137;28;20044;-77
2022/09/20 06:51:20;;;;;;;5.07;2.58;;;;;;;11.24;84.97;102231.38;5038595;28;20026;-76
2022/09/20 06:53:46;;;;;;;4.78;2.13;;;;;;;11.25;84.63;102237.47;5036499;28;20021;-77
2022/09/20 06:56:18;;;;;;;4.68;1.90;;;;;;;11.27;84.51;102237.47;5039524;28;20098;-77
2022/09/20 06:58:43;;;;;;;6.25;2.13;;;;;;;11.29;84.64;102236.56;5038594;28;20107;-77
2022/09/20 07:01:09;;;;;;;4.72;2.20;;;;;;;11.32;84.40;102236.56;5041351;28;20022;-77
2022/09/20 07:03:34;;;;;;;4.50;2.10;;;;;;;11.36;84.15;102229.56;5036068;28;20485;-77
2022/09/20 07:05:59;;;;;;;7.50;2.40;;;;;;;11.38;84.43;102233.03;5037546;28;21096;-77
2022/09/20 07:08:26;;;;;;;5.75;2.20;;;;;;;11.39;84.58;102233.03;5036076;28;20029;-77
2022/09/20 07:10:51;;;;;;;4.47;2.17;;;;;;;11.43;83.73;102238.25;5034704;28;20036;-77
2022/09/20 07:13:18;;;;;;;7.72;2.30;;;;;;;11.39;84.14;102240.88;5036765;28;20021;-77
2022/09/20 07:15:43;;;;;;;3.13;1.95;;;;;;;11.38;84.33;102238.25;5015127;28;20025;-76
2022/09/20 07:18:09;;;;;;;5.20;2.20;;;;;;;11.37;84.56;102240.00;5036615;28;20148;-76
2022/09/20 07:20:34;;;;;;;5.18;2.47;;;;;;;11.37;84.30;102241.72;5038981;28;20495;-76
2022/09/20 07:22:59;;;;;;;6.88;2.45;;;;;;;11.38;84.49;102244.34;5034754;28;20047;-77
2022/09/20 07:25:25;;;;;;;6.18;2.38;;;;;;;11.39;84.11;102246.06;5035785;28;20025;-77
2022/09/20 07:27:50;;;;;;;5.10;2.70;;;;;;;11.41;84.36;102243.44;5040000;28;20033;-76
2022/09/20 07:30:18;;;;;;;6.10;2.65;;;;;;;11.43;84.41;102246.91;5040112;28;20025;-76
2022/09/20 07:32:43;;;;;;;5.32;2.60;;;;;;;11.46;84.34;102243.41;5032871;28;20472;-76
2022/09/20 07:35:10;;;;;;;6.28;2.45;;;;;;;11.46;84.22;102251.22;5035912;28;20558;-77
2022/09/20 07:37:35;;;;;;;5.18;2.35;;;;;;;11.48;84.02;102247.75;5039332;28;20044;-77
2022/09/20 07:40:03;;;;;;;5.28;2.15;;;;;;;11.51;84.06;102258.16;5037487;28;20121;-76
2022/09/20 07:42:29;;;;;;;4.78;2.15;;;;;;;11.54;83.58;102252.91;5038927;28;20022;-76
2022/09/20 07:44:54;;;;;;;5.35;2.15;;;;;;;11.58;82.96;102256.38;5037410;28;20215;-76
2022/09/20 07:47:24;;;;;;;4.88;2.33;;;;;;;11.61;83.13;102258.97;5043398;28;20053;-76
2022/09/20 07:49:49;;;;;;;3.95;1.95;;;;;;;11.64;82.86;102265.88;5038528;28;20052;-77
2022/09/20 07:52:15;;;;;;;4.70;2.13;;;;;;;11.68;81.81;102258.03;5034504;28;20476;-76
2022/09/20 07:54:40;;;;;;;5.78;2.10;;;;;;;11.71;81.42;102264.09;5040365;28;20223;-77
2022/09/20 07:57:05;;;;;;;4.28;2.10;;;;;;;11.74;81.51;102266.69;5036049;28;20017;-76
2022/09/20 07:59:31;;;;;;;4.90;2.20;;;;;;;11.76;81.44;102271.00;5035907;28;20473;-76
2022/09/20 08:01:59;;;;;;;5.55;2.00;;;;;;;11.79;80.42;102276.19;5040659;28;20425;-76
2022/09/20 08:04:24;;;;;;;5.47;1.88;;;;;;;11.84;80.97;102268.34;5045345;28;20406;-76
2022/09/20 08:06:50;;;;;;;4.30;1.95;;;;;;;11.88;81.21;102267.44;5042796;28;20510;-76
2022/09/20 08:09:15;;;;;;;4.38;2.08;;;;;;;11.95;80.29;102270.84;5045702;28;20036;-76
2022/09/20 08:11:42;;;;;;;6.45;1.98;;;;;;;11.99;80.72;102268.22;5044273;28;20032;-76
2022/09/20 08:14:12;;;;;;;7.90;1.90;;;;;;;12.05;81.04;102264.69;5047350;28;20056;-76
2022/09/20 08:16:41;;;;;;;7.50;2.08;;;;;;;12.12;81.37;102270.75;5040436;28;20428;-76
2022/09/20 08:19:12;;;;;;;4.75;1.60;;;;;;;12.16;78.97;102264.59;5046183;28;20384;-76
2022/09/20 08:21:38;;;;;;;2.85;1.30;;;;;;;12.22;79.26;102269.78;5038940;28;20030;-76
2022/09/20 08:24:04;;;;;;;3.65;1.20;;;;;;;12.27;77.66;102270.59;5040502;28;20027;-77
2022/09/20 08:26:34;;;;;;;3.58;1.00;;;;;;;12.36;76.58;102266.16;5045445;28;20103;-76
2022/09/20 08:29:00;;;;;;;3.53;1.10;;;;;;;12.42;75.92;102269.56;5047266;28;20031;-76
2022/09/20 08:31:35;;;;;;;4.22;0.93;;;;;;;12.45;72.75;102269.53;5043010;28;20024;-76
2022/09/20 08:34:02;;;;;;;4.45;1.00;;;;;;;12.49;73.23;102262.53;5026003;28;20028;-77
2022/09/20 08:36:29;;;;;;;3.40;0.82;;;;;;;12.52;72.14;102277.31;5044836;28;20460;-76
2022/09/20 08:38:55;;;;;;;3.25;0.88;;;;;;;12.55;71.50;102272.06;5046146;28;20395;-76
2022/09/20 08:41:29;;;;;;;2.47;0.70;;;;;;;12.58;70.26;102277.22;5043949;28;20560;-77
2022/09/20 08:44:13;;;;;;;3.25;0.77;;;;;;;12.60;70.48;102281.56;5040661;28;20041;-77
2022/09/20 08:46:42;;;;;;;3.22;0.70;;;;;;;12.58;68.64;102283.31;5038606;28;20048;-77
2022/09/20 08:49:15;;;;;;;3.42;0.55;;;;;;;12.59;67.94;102290.28;5050636;28;20491;-77
2022/09/20 08:51:41;;;;;;;1.63;0.43;;;;;;;12.57;67.19;102292.03;5041332;28;20037;-76
2022/09/20 08:54:13;;;;;;;1.35;0.50;;;;;;;12.58;70.00;102296.38;5041601;28;20025;-77
2022/09/20 08:56:38;;;;;;;2.15;0.70;;;;;;;12.60;68.85;102297.22;5042289;28;20177;-75
2022/09/20 08:59:05;;;;;;;4.63;0.70;;;;;;;12.65;68.21;102293.69;5048315;28;20531;-76
2022/09/20 09:01:32;;;;;;;4.90;0.90;;;;;;;12.71;70.38;102288.41;5046534;28;20020;-76
2022/09/20 09:04:09;;;;;;;3.38;1.20;;;;;;;12.77;69.73;102293.56;5046853;28;20052;-76
2022/09/20 09:06:35;;;;;;;2.70;0.73;;;;;;;12.85;67.82;102294.31;5038336;28;20048;-76
2022/09/20 09:09:00;;;;;;;3.03;0.70;;;;;;;12.96;68.39;102294.19;5040115;28;20435;-76
2022/09/20 09:11:26;;;;;;;2.63;0.60;;;;;;;13.11;69.76;102287.94;5039680;28;20056;-76
2022/09/20 09:14:00;;;;;;;3.50;0.98;;;;;;;13.29;68.74;102285.94;5039204;28;20495;-76
2022/09/20 09:16:28;;;;;;;2.33;0.60;;;;;;;13.42;66.74;102287.53;5038353;28;20125;-76
2022/09/20 09:18:54;;;;;;;4.57;0.90;;;;;;;13.50;67.75;102285.66;5038245;28;20036;-76
2022/09/20 09:21:25;;;;;;;5.95;0.82;;;;;;;13.54;68.37;102288.22;5040462;28;20078;-76
2022/09/20 09:24:15;;;;;;;3.75;0.77;;;;;;;13.54;68.55;102285.63;5037075;28;20086;-76
2022/09/20 09:26:48;;;;;;;2.88;0.60;;;;;;;13.48;65.65;102290.06;5038178;28;20090;-76
2022/09/20 09:29:19;;;;;;;3.00;0.70;;;;;;;13.49;66.24;102294.38;5040277;28;20029;-76
2022/09/20 09:31:48;;;;;;;2.95;0.70;;;;;;;13.49;67.17;102288.31;5037062;28;20087;-75
2022/09/20 09:34:24;;;;;;;4.78;0.73;;;;;;;13.49;66.89;102290.91;5033793;28;20109;-76
2022/09/20 09:36:49;;;;;;;2.78;0.50;;;;;;;13.47;63.85;102290.06;5033081;28;20032;-76
2022/09/20 09:39:22;;;;;;;4.68;0.60;;;;;;;13.48;64.57;102295.31;5036500;28;20106;-76
2022/09/20 09:41:48;;;;;;;5.38;0.73;;;;;;;13.48;65.29;102297.91;5037217;28;20360;-76
2022/09/20 09:44:27;;;;;;;3.85;0.70;;;;;;;13.47;66.55;102300.53;5032643;28;20453;-78
2022/09/20 09:46:54;;;;;;;4.72;0.65;;;;;;;13.42;66.04;102308.44;5035248;28;20503;-76
2022/09/20 09:49:34;;;;;;;5.18;0.73;;;;;;;13.39;66.52;102307.59;5035630;28;20036;-76
2022/09/20 09:52:24;;;;;;;2.30;0.52;;;;;;;13.35;69.11;102311.97;5018170;28;20383;-76
2022/09/20 09:54:53;;;;;;;2.15;0.60;;;;;;;13.30;71.05;102321.66;5014772;28;20116;-76
2022/09/20 09:57:30;;;;;;;2.75;0.60;;;;;;;13.23;71.72;102325.22;5033815;28;20025;-78
2022/09/20 10:00:09;;;;;;;4.80;0.73;;;;;;;13.14;72.08;102324.47;5037764;28;20334;-77
2022/09/20 10:03:08;;;;;;;5.22;1.25;;;;;;;13.11;74.61;102319.28;5035281;28;20036;-76
2022/09/20 10:05:55;;;;;;;3.47;0.88;;;;;;;13.05;73.75;102320.22;5036707;28;20043;-77
2022/09/20 10:09:02;;;;;;;4.85;0.90;;;;;;;13.08;74.75;102321.94;5034484;28;20047;-77
2022/09/20 10:11:39;;;;;;;3.65;0.80;;;;;;;13.08;75.86;102319.31;4999043;28;20045;-77
2022/09/20 10:14:31;;;;;;;2.75;0.90;;;;;;;13.04;74.48;102315.88;5033730;28;20167;-78
2022/09/20 10:17:22;;;;;;;3.10;0.80;;;;;;;13.03;75.07;102319.38;5037481;28;20566;-77
2022/09/20 10:20:07;;;;;;;3.75;0.85;;;;;;;13.04;74.98;102315.88;5030566;28;20176;-77
2022/09/20 10:22:53;;;;;;;3.97;0.90;;;;;;;13.09;74.48;102314.94;5036228;28;20033;-77
2022/09/20 10:25:38;;;;;;;3.13;0.80;;;;;;;13.18;74.42;102307.00;5038750;28;20047;-76
2022/09/20 10:28:47;;;;;;;2.22;0.68;;;;;;;13.30;75.03;102309.44;5033563;28;20033;-76
2022/09/20 10:31:56;;;;;;;3.60;0.80;;;;;;;13.39;73.05;102307.59;5034732;28;20052;-77
2022/09/20 10:34:55;;;;;;;3.72;0.80;;;;;;;13.39;70.02;102308.44;5016580;28;20037;-77
2022/09/20 10:37:39;;;;;;;3.88;1.00;;;;;;;13.41;69.02;102309.31;5036715;28;21793;-77
2022/09/20 10:40:19;;;;;;;3.85;0.90;;;;;;;13.42;68.67;102316.28;5033095;28;20121;-77
2022/09/20 10:45:55;;;;;;;4.97;1.02;;;;;;;13.45;70.19;102300.56;5037161;28;20051;-77
2022/09/20 10:48:31;;;;;;;3.00;0.70;;;;;;;13.52;69.12;102303.94;5033510;28;20036;-77
2022/09/20 10:51:10;;;;;;;1.20;0.50;;;;;;;13.62;68.48;102313.38;5038594;28;20052;-77
2022/09/20 10:53:52;;;;;;;3.20;0.50;;;;;;;13.69;67.09;102303.69;5035368;28;20027;-76
2022/09/20 10:56:29;;;;;;;2.10;0.50;;;;;;;13.77;65.85;102317.53;5032747;28;20036;-76
2022/09/20 10:59:30;;;;;;;2.70;0.50;;;;;;;13.81;67.04;102303.50;5037324;28;20624;-77
2022/09/20 11:02:22;;;;;;;1.52;0.38;;;;;;;13.85;67.43;102300.81;5037697;28;20029;-77
2022/09/20 11:05:02;;;;;;;1.50;0.50;;;;;;;13.94;65.26;102313.78;5034991;28;20068;-77
2022/09/20 11:07:51;;;;;;;3.13;0.63;;;;;;;13.97;64.98;102311.13;5034870;28;20484;-76
2022/09/20 11:10:20;;;;;;;1.58;0.50;;;;;;;14.00;63.46;102313.69;5034861;28;20035;-77
2022/09/20 11:13:14;;;;;;;4.13;0.50;;;;;;;14.04;65.33;102317.97;5036000;28;20457;-76
2022/09/20 11:15:45;;;;;;;3.42;0.50;;;;;;;14.10;63.78;102322.22;5027718;28;20563;-77
2022/09/20 11:18:22;;;;;;;3.25;0.60;;;;;;;14.13;64.47;102326.56;5032483;28;20428;-77
2022/09/20 11:21:06;;;;;;;3.28;0.60;;;;;;;14.16;63.79;102321.28;5036533;28;20044;-77
2022/09/20 11:24:02;;;;;;;2.03;0.50;;;;;;;14.23;64.70;102321.16;5016026;28;20056;-77
2022/09/20 11:26:31;;;;;;;1.48;0.55;;;;;;;14.32;63.98;102330.59;5035960;28;20179;-77
2022/09/20 11:29:33;;;;;;;1.75;0.47;;;;;;;14.44;65.22;102326.00;5034936;28;20033;-77
2022/09/20 11:32:12;;;;;;;1.67;0.50;;;;;;;14.52;63.90;102326.72;5035132;28;20033;-77
2022/09/20 11:34:49;;;;;;;1.33;0.40;;;;;;;14.55;63.54;102334.53;5037804;28;20035;-77
2022/09/20 11:37:17;;;;;;;1.75;0.52;;;;;;;14.53;62.53;102331.06;5038928;28;20107;-77
2022/09/20 11:39:45;;;;;;;4.45;0.50;;;;;;;14.53;64.29;102336.31;5043195;28;20033;-77
2022/09/20 11:42:17;;;;;;;2.03;0.50;;;;;;;14.51;62.07;102327.66;5038969;28;20075;-77
2022/09/20 11:44:43;;;;;;;3.20;0.60;;;;;;;14.50;61.21;102339.00;5036094;28;20049;-76
2022/09/20 11:47:31;;;;;;;2.25;0.40;;;;;;;14.46;61.06;102335.56;5042401;28;20112;-76
2022/09/20 11:50:12;;;;;;;1.13;0.43;;;;;;;14.42;62.06;102329.53;5043561;28;20021;-76
2022/09/20 11:52:54;;;;;;;2.97;0.50;;;;;;;14.41;61.34;102340.03;5040458;28;20479;-77
2022/09/20 11:55:31;;;;;;;2.30;0.40;;;;;;;14.38;61.90;102333.06;5040451;28;20032;-77
2022/09/20 11:58:10;;;;;;;3.83;0.55;;;;;;;14.38;61.57;102332.22;5038265;28;20059;-77
2022/09/20 12:00:39;;;;;;;2.03;0.60;;;;;;;14.32;61.16;102335.81;5040557;28;20048;-76
2022/09/20 12:03:27;;;;;;;3.47;0.50;;;;;;;14.32;61.71;102333.22;5033246;28;20025;-77
2022/09/20 12:06:05;;;;;;;2.50;0.70;;;;;;;14.36;62.00;102340.09;5028990;28;20777;-77
2022/09/20 12:08:39;;;;;;;3.13;0.50;;;;;;;14.34;61.63;102339.28;5038841;28;20542;-77
2022/09/20 12:11:07;;;;;;;2.63;0.40;;;;;;;14.30;60.77;102334.09;5036408;28;20498;-77
2022/09/20 12:13:36;;;;;;;2.72;0.50;;;;;;;14.27;60.47;102335.03;5034193;28;20388;-77
2022/09/20 12:16:06;;;;;;;1.80;0.32;;;;;;;14.26;59.81;102341.16;5035345;28;20570;-77
2022/09/20 12:18:34;;;;;;;1.83;0.63;;;;;;;14.31;61.49;102333.22;5037133;28;20030;-76
2022/09/20 12:21:05;;;;;;;1.20;0.40;;;;;;;14.38;60.02;102329.63;5041730;28;20025;-76
2022/09/20 12:23:37;;;;;;;1.67;0.40;;;;;;;14.45;61.35;102327.75;5043475;28;20056;-76